SACO/COR METAR and TAF weather

Enter ICAO airport designator
Station Type Date Time Source
SACO METAR 2023/03/27 11:00 UTC NOAA

SACO 271100Z 03009KT CAVOK 17/15 Q1017 NOSIG RMK PP000


Station Type Date Time Source
SACO Decoded METAR 2023/03/27 11:00 UTC NOAA

Cordoba Aerodrome, Argentina (SACO) 31-19S 064-13W 474M
Mar 27, 2023 - 07:00 AM EDT / 2023.03.27 1100 UTC
Wind: from the NNE (030 degrees) at 10 MPH (9 KT):0
Visibility: greater than 7 mile(s):0
Temperature: 62 F (17 C)
Dew Point: 59 F (15 C)
Relative Humidity: 88%
Pressure (altimeter): 30.03 in. Hg (1017 hPa)
ob: SACO 271100Z 03009KT CAVOK 17/15 Q1017 NOSIG RMK PP000
cycle: 11

Station Type Date Time Source
SACO TAF 2023/03/27 06:21 UTC NOAA

TAF SACO 270500Z 2706/2806 02005KT 9999 SCT030 TX26/2718Z TN15/2710Z
TEMPO 2708/2711 2000 BR BKN010
BECMG 2712/2715 05015KT 9999 SCT025 FEW030TCU

Example: see airport list